sensor_id;sensor_type;location;lat;lon;timestamp;pressure;altitude;pressure_sealevel;temperature;humidity
35435;BME280;21556;55.782;37.528;2023-04-21T00:01:45;99845.25;;;12.99;29.10
35435;BME280;21556;55.782;37.528;2023-04-21T00:04:12;99849.31;;;12.65;29.92
35435;BME280;21556;55.782;37.528;2023-04-21T00:06:42;99852.91;;;12.72;29.81
35435;BME280;21556;55.782;37.528;2023-04-21T00:09:09;99847.91;;;12.99;29.04
35435;BME280;21556;55.782;37.528;2023-04-21T00:11:39;99836.28;;;12.76;29.92
35435;BME280;21556;55.782;37.528;2023-04-21T00:14:06;99839.19;;;12.21;30.93
35435;BME280;21556;55.782;37.528;2023-04-21T00:16:33;99845.81;;;11.92;30.74
35435;BME280;21556;55.782;37.528;2023-04-21T00:19:01;99842.22;;;11.85;31.20
35435;BME280;21556;55.782;37.528;2023-04-21T00:21:37;99836.78;;;11.76;31.98
35435;BME280;21556;55.782;37.528;2023-04-21T00:24:03;99840.16;;;12.28;30.98
35435;BME280;21556;55.782;37.528;2023-04-21T00:26:33;99842.53;;;12.08;31.71
35435;BME280;21556;55.782;37.528;2023-04-21T00:29:01;99836.19;;;11.94;31.47
35435;BME280;21556;55.782;37.528;2023-04-21T00:31:29;99837.56;;;11.67;31.96
35435;BME280;21556;55.782;37.528;2023-04-21T00:33:57;99837.72;;;11.79;31.70
35435;BME280;21556;55.782;37.528;2023-04-21T00:36:26;99833.50;;;11.88;31.77
35435;BME280;21556;55.782;37.528;2023-04-21T00:38:54;99834.50;;;11.96;31.77
35435;BME280;21556;55.782;37.528;2023-04-21T00:41:21;99842.88;;;11.70;32.36
35435;BME280;21556;55.782;37.528;2023-04-21T00:46:31;99828.94;;;11.77;32.40
35435;BME280;21556;55.782;37.528;2023-04-21T00:48:58;99834.00;;;11.64;32.66
35435;BME280;21556;55.782;37.528;2023-04-21T00:51:29;99831.28;;;11.56;32.69
35435;BME280;21556;55.782;37.528;2023-04-21T00:54:05;99837.41;;;11.55;32.86
35435;BME280;21556;55.782;37.528;2023-04-21T00:56:34;99835.38;;;11.39;33.00
35435;BME280;21556;55.782;37.528;2023-04-21T00:59:03;99824.56;;;11.76;32.48
35435;BME280;21556;55.782;37.528;2023-04-21T01:01:30;99819.38;;;11.82;32.40
35435;BME280;21556;55.782;37.528;2023-04-21T01:04:00;99817.31;;;11.60;32.65
35435;BME280;21556;55.782;37.528;2023-04-21T01:06:30;99826.06;;;11.61;32.88
35435;BME280;21556;55.782;37.528;2023-04-21T01:09:03;99823.28;;;11.50;32.84
35435;BME280;21556;55.782;37.528;2023-04-21T01:11:32;99826.72;;;11.44;33.10
35435;BME280;21556;55.782;37.528;2023-04-21T01:13:59;99822.16;;;11.32;33.28
35435;BME280;21556;55.782;37.528;2023-04-21T01:16:26;99817.06;;;11.43;32.89
35435;BME280;21556;55.782;37.528;2023-04-21T01:18:54;99818.97;;;11.52;32.58
35435;BME280;21556;55.782;37.528;2023-04-21T01:21:21;99808.00;;;11.84;31.51
35435;BME280;21556;55.782;37.528;2023-04-21T01:23:54;99806.81;;;11.60;32.37
35435;BME280;21556;55.782;37.528;2023-04-21T01:26:22;99799.13;;;11.75;31.36
35435;BME280;21556;55.782;37.528;2023-04-21T01:28:48;99795.06;;;11.97;31.12
35435;BME280;21556;55.782;37.528;2023-04-21T01:31:16;99802.38;;;11.57;31.83
35435;BME280;21556;55.782;37.528;2023-04-21T01:33:44;99803.09;;;11.44;32.29
35435;BME280;21556;55.782;37.528;2023-04-21T01:36:10;99809.09;;;11.37;31.96
35435;BME280;21556;55.782;37.528;2023-04-21T01:38:39;99805.28;;;11.18;32.73
35435;BME280;21556;55.782;37.528;2023-04-21T01:41:05;99808.41;;;11.49;32.05
35435;BME280;21556;55.782;37.528;2023-04-21T01:43:31;99808.34;;;11.46;32.26
35435;BME280;21556;55.782;37.528;2023-04-21T01:45:57;99808.81;;;11.19;33.34
35435;BME280;21556;55.782;37.528;2023-04-21T01:48:25;99808.66;;;11.08;33.35
35435;BME280;21556;55.782;37.528;2023-04-21T01:50:54;99801.66;;;11.08;33.30
35435;BME280;21556;55.782;37.528;2023-04-21T01:53:21;99807.69;;;11.03;33.55
35435;BME280;21556;55.782;37.528;2023-04-21T01:55:48;99799.69;;;10.95;33.79
35435;BME280;21556;55.782;37.528;2023-04-21T01:58:14;99802.09;;;11.38;32.26
35435;BME280;21556;55.782;37.528;2023-04-21T02:00:40;99799.53;;;11.41;32.51
35435;BME280;21556;55.782;37.528;2023-04-21T02:03:07;99807.63;;;11.00;33.60
35435;BME280;21556;55.782;37.528;2023-04-21T02:05:34;99808.25;;;10.85;33.70
35435;BME280;21556;55.782;37.528;2023-04-21T02:08:00;99809.00;;;10.76;33.49
35435;BME280;21556;55.782;37.528;2023-04-21T02:10:28;99804.78;;;10.86;33.56
35435;BME280;21556;55.782;37.528;2023-04-21T02:12:55;99808.19;;;10.82;33.86
35435;BME280;21556;55.782;37.528;2023-04-21T02:15:22;99811.63;;;10.76;33.83
35435;BME280;21556;55.782;37.528;2023-04-21T02:17:50;99806.91;;;10.58;33.81
35435;BME280;21556;55.782;37.528;2023-04-21T02:20:16;99812.22;;;10.62;33.58
35435;BME280;21556;55.782;37.528;2023-04-21T02:22:42;99809.72;;;10.69;34.09
35435;BME280;21556;55.782;37.528;2023-04-21T02:25:09;99806.63;;;10.43;34.12
35435;BME280;21556;55.782;37.528;2023-04-21T02:27:37;99814.78;;;10.58;34.17
35435;BME280;21556;55.782;37.528;2023-04-21T02:30:09;99812.66;;;10.86;32.81
35435;BME280;21556;55.782;37.528;2023-04-21T02:32:35;99818.03;;;10.94;32.83
35435;BME280;21556;55.782;37.528;2023-04-21T02:35:08;99819.47;;;10.76;32.86
35435;BME280;21556;55.782;37.528;2023-04-21T02:37:34;99816.66;;;10.66;33.78
35435;BME280;21556;55.782;37.528;2023-04-21T02:40:00;99820.16;;;10.65;34.02
35435;BME280;21556;55.782;37.528;2023-04-21T02:42:34;99808.41;;;10.44;34.08
35435;BME280;21556;55.782;37.528;2023-04-21T02:45:03;99817.53;;;10.21;34.68
35435;BME280;21556;55.782;37.528;2023-04-21T02:47:31;99823.06;;;10.34;34.85
35435;BME280;21556;55.782;37.528;2023-04-21T02:50:00;99817.81;;;10.34;34.75
35435;BME280;21556;55.782;37.528;2023-04-21T02:52:26;99822.09;;;10.29;34.62
35435;BME280;21556;55.782;37.528;2023-04-21T02:54:53;99824.75;;;10.31;35.17
35435;BME280;21556;55.782;37.528;2023-04-21T02:57:29;99820.31;;;10.27;34.86
35435;BME280;21556;55.782;37.528;2023-04-21T03:00:34;99822.38;;;10.43;34.78
35435;BME280;21556;55.782;37.528;2023-04-21T03:03:03;99819.38;;;10.25;35.29
35435;BME280;21556;55.782;37.528;2023-04-21T03:05:32;99821.19;;;10.27;35.17
35435;BME280;21556;55.782;37.528;2023-04-21T03:08:02;99819.56;;;10.32;34.03
35435;BME280;21556;55.782;37.528;2023-04-21T03:10:36;99828.94;;;10.23;34.80
35435;BME280;21556;55.782;37.528;2023-04-21T03:13:06;99821.84;;;10.63;34.19
35435;BME280;21556;55.782;37.528;2023-04-21T03:15:34;99820.91;;;10.13;34.72
35435;BME280;21556;55.782;37.528;2023-04-21T03:18:19;99817.72;;;10.28;34.09
35435;BME280;21556;55.782;37.528;2023-04-21T03:20:45;99821.38;;;10.38;34.05
35435;BME280;21556;55.782;37.528;2023-04-21T03:23:12;99822.13;;;10.78;33.46
35435;BME280;21556;55.782;37.528;2023-04-21T03:25:39;99821.56;;;10.47;33.93
35435;BME280;21556;55.782;37.528;2023-04-21T03:28:05;99818.09;;;10.98;32.88
35435;BME280;21556;55.782;37.528;2023-04-21T03:30:31;99821.66;;;10.52;33.49
35435;BME280;21556;55.782;37.528;2023-04-21T03:33:07;99830.84;;;10.28;34.02
35435;BME280;21556;55.782;37.528;2023-04-21T03:35:36;99829.03;;;10.26;34.10
35435;BME280;21556;55.782;37.528;2023-04-21T03:38:02;99825.28;;;10.60;34.19
35435;BME280;21556;55.782;37.528;2023-04-21T03:40:30;99832.59;;;10.75;33.17
35435;BME280;21556;55.782;37.528;2023-04-21T03:43:05;99818.56;;;11.26;32.69
35435;BME280;21556;55.782;37.528;2023-04-21T03:45:37;99824.97;;;10.90;33.23
35435;BME280;21556;55.782;37.528;2023-04-21T03:48:06;99816.78;;;11.25;32.51
35435;BME280;21556;55.782;37.528;2023-04-21T03:50:32;99826.03;;;11.01;32.66
35435;BME280;21556;55.782;37.528;2023-04-21T03:53:10;99824.53;;;11.17;32.92
35435;BME280;21556;55.782;37.528;2023-04-21T03:55:35;99819.03;;;11.02;32.70
35435;BME280;21556;55.782;37.528;2023-04-21T03:58:04;99818.84;;;11.46;32.09
35435;BME280;21556;55.782;37.528;2023-04-21T04:00:32;99811.47;;;11.20;32.84
35435;BME280;21556;55.782;37.528;2023-04-21T04:03:02;99818.28;;;11.07;32.99
35435;BME280;21556;55.782;37.528;2023-04-21T04:05:30;99806.84;;;11.05;32.59
35435;BME280;21556;55.782;37.528;2023-04-21T04:07:56;99811.09;;;10.97;33.35
35435;BME280;21556;55.782;37.528;2023-04-21T04:10:23;99813.03;;;11.11;32.92
35435;BME280;21556;55.782;37.528;2023-04-21T04:12:50;99812.97;;;11.06;32.72
35435;BME280;21556;55.782;37.528;2023-04-21T04:15:17;99811.28;;;11.08;32.77
35435;BME280;21556;55.782;37.528;2023-04-21T04:17:45;99806.63;;;11.48;32.38
35435;BME280;21556;55.782;37.528;2023-04-21T04:20:12;99810.03;;;11.42;32.50
35435;BME280;21556;55.782;37.528;2023-04-21T04:23:06;99796.44;;;11.69;32.22
35435;BME280;21556;55.782;37.528;2023-04-21T04:25:53;99807.31;;;11.33;33.01
35435;BME280;21556;55.782;37.528;2023-04-21T04:32:18;99805.09;;;11.62;31.90
35435;BME280;21556;55.782;37.528;2023-04-21T04:34:45;99800.03;;;11.77;31.88
35435;BME280;21556;55.782;37.528;2023-04-21T04:37:12;99803.59;;;11.82;31.78
35435;BME280;21556;55.782;37.528;2023-04-21T04:39:45;99801.19;;;11.95;31.78
35435;BME280;21556;55.782;37.528;2023-04-21T04:42:39;99808.19;;;11.96;31.59
35435;BME280;21556;55.782;37.528;2023-04-21T04:45:07;99812.19;;;11.69;31.92
35435;BME280;21556;55.782;37.528;2023-04-21T04:47:39;99810.56;;;11.77;31.99
35435;BME280;21556;55.782;37.528;2023-04-21T04:50:06;99807.00;;;11.75;32.08
35435;BME280;21556;55.782;37.528;2023-04-21T04:52:32;99804.69;;;11.97;31.58
35435;BME280;21556;55.782;37.528;2023-04-21T04:54:59;99802.81;;;11.87;31.84
35435;BME280;21556;55.782;37.528;2023-04-21T04:57:26;99788.16;;;12.09;31.87
35435;BME280;21556;55.782;37.528;2023-04-21T05:00:06;99797.28;;;12.37;31.35
35435;BME280;21556;55.782;37.528;2023-04-21T05:02:37;99788.50;;;12.36;31.24
35435;BME280;21556;55.782;37.528;2023-04-21T05:05:05;99788.22;;;12.10;31.73
35435;BME280;21556;55.782;37.528;2023-04-21T05:07:57;99783.19;;;12.33;31.10
35435;BME280;21556;55.782;37.528;2023-04-21T05:10:24;99783.31;;;12.44;31.37
35435;BME280;21556;55.782;37.528;2023-04-21T05:12:50;99777.84;;;12.25;31.50
35435;BME280;21556;55.782;37.528;2023-04-21T05:15:18;99781.53;;;12.41;30.59
35435;BME280;21556;55.782;37.528;2023-04-21T05:17:48;99779.00;;;12.50;30.79
35435;BME280;21556;55.782;37.528;2023-04-21T05:20:20;99777.25;;;12.51;30.69
35435;BME280;21556;55.782;37.528;2023-04-21T05:22:46;99778.50;;;12.90;30.13
35435;BME280;21556;55.782;37.528;2023-04-21T05:25:12;99781.94;;;12.83;30.35
35435;BME280;21556;55.782;37.528;2023-04-21T05:27:43;99769.91;;;13.15;29.93
35435;BME280;21556;55.782;37.528;2023-04-21T05:30:15;99763.94;;;13.36;29.12
35435;BME280;21556;55.782;37.528;2023-04-21T05:32:42;99761.28;;;13.33;29.46
35435;BME280;21556;55.782;37.528;2023-04-21T05:35:08;99762.31;;;13.61;29.06
35435;BME280;21556;55.782;37.528;2023-04-21T05:37:35;99751.78;;;13.67;29.13
35435;BME280;21556;55.782;37.528;2023-04-21T05:40:01;99750.97;;;13.82;29.07
35435;BME280;21556;55.782;37.528;2023-04-21T05:42:32;99752.81;;;14.00;28.56
35435;BME280;21556;55.782;37.528;2023-04-21T05:44:59;99751.97;;;14.19;28.62
35435;BME280;21556;55.782;37.528;2023-04-21T05:47:30;99754.69;;;14.49;28.27
35435;BME280;21556;55.782;37.528;2023-04-21T05:49:56;99745.94;;;14.85;27.55
35435;BME280;21556;55.782;37.528;2023-04-21T05:52:23;99745.09;;;14.67;27.74
35435;BME280;21556;55.782;37.528;2023-04-21T05:54:49;99743.28;;;14.96;27.08
35435;BME280;21556;55.782;37.528;2023-04-21T05:57:17;99741.50;;;15.37;26.64
35435;BME280;21556;55.782;37.528;2023-04-21T05:59:43;99729.19;;;15.20;26.68
35435;BME280;21556;55.782;37.528;2023-04-21T06:02:10;99730.91;;;15.44;26.49
35435;BME280;21556;55.782;37.528;2023-04-21T06:04:36;99724.66;;;15.72;26.44
35435;BME280;21556;55.782;37.528;2023-04-21T06:07:07;99726.47;;;15.66;27.04
35435;BME280;21556;55.782;37.528;2023-04-21T06:09:37;99722.03;;;15.63;26.73
35435;BME280;21556;55.782;37.528;2023-04-21T06:12:03;99724.34;;;16.33;26.41
35435;BME280;21556;55.782;37.528;2023-04-21T06:14:30;99710.28;;;16.27;25.88
35435;BME280;21556;55.782;37.528;2023-04-21T06:16:56;99705.69;;;16.52;25.83
35435;BME280;21556;55.782;37.528;2023-04-21T06:19:22;99711.13;;;16.32;26.01
35435;BME280;21556;55.782;37.528;2023-04-21T06:21:50;99703.22;;;16.30;25.95
35435;BME280;21556;55.782;37.528;2023-04-21T06:24:19;99715.41;;;16.51;25.96
35435;BME280;21556;55.782;37.528;2023-04-21T06:26:51;99710.00;;;16.65;25.68
35435;BME280;21556;55.782;37.528;2023-04-21T06:29:18;99713.78;;;16.32;26.34
35435;BME280;21556;55.782;37.528;2023-04-21T06:31:44;99710.88;;;16.67;25.65
35435;BME280;21556;55.782;37.528;2023-04-21T06:34:10;99712.25;;;17.13;25.45
35435;BME280;21556;55.782;37.528;2023-04-21T06:36:42;99701.63;;;17.16;25.43
35435;BME280;21556;55.782;37.528;2023-04-21T06:39:08;99706.03;;;17.95;24.47
35435;BME280;21556;55.782;37.528;2023-04-21T06:41:38;99704.19;;;18.00;23.99
35435;BME280;21556;55.782;37.528;2023-04-21T06:44:09;99697.13;;;18.60;23.71
35435;BME280;21556;55.782;37.528;2023-04-21T06:46:46;99685.66;;;19.99;22.69
35435;BME280;21556;55.782;37.528;2023-04-21T06:49:15;99676.63;;;19.64;22.93
35435;BME280;21556;55.782;37.528;2023-04-21T06:51:44;99672.75;;;20.58;22.05
35435;BME280;21556;55.782;37.528;2023-04-21T06:54:11;99661.44;;;21.16;21.77
35435;BME280;21556;55.782;37.528;2023-04-21T06:56:38;99665.44;;;20.66;21.76
35435;BME280;21556;55.782;37.528;2023-04-21T06:59:07;99662.69;;;21.37;21.32
35435;BME280;21556;55.782;37.528;2023-04-21T07:01:34;99668.44;;;21.55;21.22
35435;BME280;21556;55.782;37.528;2023-04-21T07:04:03;99658.09;;;21.74;20.97
35435;BME280;21556;55.782;37.528;2023-04-21T07:06:30;99657.63;;;22.47;20.09
35435;BME280;21556;55.782;37.528;2023-04-21T07:13:14;99639.34;;;23.13;19.73
35435;BME280;21556;55.782;37.528;2023-04-21T07:15:40;99639.19;;;22.91;19.04
35435;BME280;21556;55.782;37.528;2023-04-21T07:18:27;99634.25;;;23.05;19.20
35435;BME280;21556;55.782;37.528;2023-04-21T07:20:53;99627.66;;;22.37;19.71
35435;BME280;21556;55.782;37.528;2023-04-21T07:23:19;99629.84;;;23.04;19.33
35435;BME280;21556;55.782;37.528;2023-04-21T07:25:45;99622.56;;;22.56;19.71
35435;BME280;21556;55.782;37.528;2023-04-21T07:28:14;99620.53;;;23.63;18.66
35435;BME280;21556;55.782;37.528;2023-04-21T07:30:41;99614.63;;;23.54;18.69
35435;BME280;21556;55.782;37.528;2023-04-21T07:33:08;99614.16;;;23.90;18.45
35435;BME280;21556;55.782;37.528;2023-04-21T07:35:36;99614.94;;;24.16;18.88
35435;BME280;21556;55.782;37.528;2023-04-21T07:38:05;99605.81;;;23.98;18.70
35435;BME280;21556;55.782;37.528;2023-04-21T07:40:33;99610.50;;;23.46;18.77
35435;BME280;21556;55.782;37.528;2023-04-21T07:43:00;99615.59;;;23.28;18.95
35435;BME280;21556;55.782;37.528;2023-04-21T07:45:27;99607.59;;;23.27;18.62
35435;BME280;21556;55.782;37.528;2023-04-21T07:47:54;99595.81;;;25.08;17.69
35435;BME280;21556;55.782;37.528;2023-04-21T07:50:19;99599.09;;;23.64;18.45
35435;BME280;21556;55.782;37.528;2023-04-21T07:52:49;99596.69;;;23.33;18.82
35435;BME280;21556;55.782;37.528;2023-04-21T07:55:21;99597.72;;;23.99;18.07
35435;BME280;21556;55.782;37.528;2023-04-21T07:57:47;99593.66;;;23.66;18.58
35435;BME280;21556;55.782;37.528;2023-04-21T08:00:15;99579.59;;;24.06;18.10
35435;BME280;21556;55.782;37.528;2023-04-21T08:02:45;99586.28;;;24.38;18.09
35435;BME280;21556;55.782;37.528;2023-04-21T08:05:13;99592.09;;;23.84;18.06
35435;BME280;21556;55.782;37.528;2023-04-21T08:07:41;99583.00;;;23.88;18.29
35435;BME280;21556;55.782;37.528;2023-04-21T08:10:07;99576.69;;;23.89;18.22
35435;BME280;21556;55.782;37.528;2023-04-21T08:12:43;99580.13;;;22.72;18.48
35435;BME280;21556;55.782;37.528;2023-04-21T08:15:09;99574.88;;;22.95;18.71
35435;BME280;21556;55.782;37.528;2023-04-21T08:17:38;99570.13;;;22.52;18.89
35435;BME280;21556;55.782;37.528;2023-04-21T08:20:06;99568.56;;;22.71;19.23
35435;BME280;21556;55.782;37.528;2023-04-21T08:22:33;99569.56;;;22.42;19.25
35435;BME280;21556;55.782;37.528;2023-04-21T08:25:02;99569.16;;;23.29;19.02
35435;BME280;21556;55.782;37.528;2023-04-21T08:27:30;99565.75;;;23.01;19.02
35435;BME280;21556;55.782;37.528;2023-04-21T08:29:56;99557.88;;;24.77;17.90
35435;BME280;21556;55.782;37.528;2023-04-21T08:32:22;99552.78;;;24.06;18.16
35435;BME280;21556;55.782;37.528;2023-04-21T08:34:51;99562.00;;;23.77;18.47
35435;BME280;21556;55.782;37.528;2023-04-21T08:37:19;99552.84;;;24.26;18.05
35435;BME280;21556;55.782;37.528;2023-04-21T08:39:47;99554.97;;;23.96;18.96
35435;BME280;21556;55.782;37.528;2023-04-21T08:42:16;99543.09;;;24.46;18.60
35435;BME280;21556;55.782;37.528;2023-04-21T08:44:43;99550.41;;;23.98;18.76
35435;BME280;21556;55.782;37.528;2023-04-21T08:47:14;99543.56;;;24.13;18.77
35435;BME280;21556;55.782;37.528;2023-04-21T08:49:41;99543.22;;;24.21;19.18
35435;BME280;21556;55.782;37.528;2023-04-21T08:52:11;99542.50;;;23.03;19.50
35435;BME280;21556;55.782;37.528;2023-04-21T08:54:40;99540.56;;;22.56;19.67
35435;BME280;21556;55.782;37.528;2023-04-21T08:57:07;99532.06;;;22.45;19.63
35435;BME280;21556;55.782;37.528;2023-04-21T08:59:36;99528.47;;;23.67;19.03
35435;BME280;21556;55.782;37.528;2023-04-21T09:04:36;99515.88;;;25.16;18.36
35435;BME280;21556;55.782;37.528;2023-04-21T09:07:03;99519.72;;;24.27;19.51
35435;BME280;21556;55.782;37.528;2023-04-21T09:09:29;99519.13;;;23.99;19.61
35435;BME280;21556;55.782;37.528;2023-04-21T09:11:56;99524.56;;;24.19;19.11
35435;BME280;21556;55.782;37.528;2023-04-21T09:14:44;99507.72;;;24.16;19.44
35435;BME280;21556;55.782;37.528;2023-04-21T09:17:13;99513.66;;;24.02;19.58
35435;BME280;21556;55.782;37.528;2023-04-21T09:19:39;99502.75;;;25.09;18.94
35435;BME280;21556;55.782;37.528;2023-04-21T09:22:08;99505.00;;;23.73;19.93
35435;BME280;21556;55.782;37.528;2023-04-21T09:24:36;99511.59;;;24.71;19.18
35435;BME280;21556;55.782;37.528;2023-04-21T09:27:10;99507.91;;;24.54;19.15
35435;BME280;21556;55.782;37.528;2023-04-21T09:29:45;99502.16;;;23.54;19.55
35435;BME280;21556;55.782;37.528;2023-04-21T09:32:20;99493.03;;;24.04;19.26
35435;BME280;21556;55.782;37.528;2023-04-21T09:34:48;99496.44;;;24.30;19.12
35435;BME280;21556;55.782;37.528;2023-04-21T09:37:15;99493.81;;;24.89;19.37
35435;BME280;21556;55.782;37.528;2023-04-21T09:39:44;99486.09;;;24.20;19.29
35435;BME280;21556;55.782;37.528;2023-04-21T09:42:11;99495.59;;;23.40;20.13
35435;BME280;21556;55.782;37.528;2023-04-21T09:44:38;99485.22;;;23.54;20.25
35435;BME280;21556;55.782;37.528;2023-04-21T09:47:09;99486.66;;;23.63;20.00
35435;BME280;21556;55.782;37.528;2023-04-21T09:49:35;99482.81;;;23.92;19.49
35435;BME280;21556;55.782;37.528;2023-04-21T09:52:07;99481.97;;;24.74;18.96
35435;BME280;21556;55.782;37.528;2023-04-21T09:54:35;99478.41;;;24.54;19.34
35435;BME280;21556;55.782;37.528;2023-04-21T09:57:10;99470.72;;;24.46;19.19
35435;BME280;21556;55.782;37.528;2023-04-21T09:59:44;99469.78;;;23.61;20.01
35435;BME280;21556;55.782;37.528;2023-04-21T10:02:12;99465.38;;;24.24;19.77
35435;BME280;21556;55.782;37.528;2023-04-21T10:04:40;99457.84;;;23.91;19.97
35435;BME280;21556;55.782;37.528;2023-04-21T10:07:06;99466.03;;;24.29;20.09
35435;BME280;21556;55.782;37.528;2023-04-21T10:09:42;99457.19;;;25.07;19.39
35435;BME280;21556;55.782;37.528;2023-04-21T10:12:10;99465.31;;;24.47;19.70
35435;BME280;21556;55.782;37.528;2023-04-21T10:14:38;99454.28;;;23.91;20.07
35435;BME280;21556;55.782;37.528;2023-04-21T10:17:06;99445.50;;;25.08;18.87
35435;BME280;21556;55.782;37.528;2023-04-21T10:19:37;99441.00;;;24.50;19.49
35435;BME280;21556;55.782;37.528;2023-04-21T10:22:12;99444.75;;;25.06;19.11
35435;BME280;21556;55.782;37.528;2023-04-21T10:24:39;99446.72;;;24.82;19.47
35435;BME280;21556;55.782;37.528;2023-04-21T10:27:11;99445.28;;;24.94;19.09
35435;BME280;21556;55.782;37.528;2023-04-21T10:29:37;99455.34;;;24.70;19.68
35435;BME280;21556;55.782;37.528;2023-04-21T10:32:04;99446.41;;;24.29;19.53
35435;BME280;21556;55.782;37.528;2023-04-21T10:34:35;99444.94;;;24.21;19.79
35435;BME280;21556;55.782;37.528;2023-04-21T10:39:35;99432.22;;;24.47;19.87
35435;BME280;21556;55.782;37.528;2023-04-21T10:44:43;99432.88;;;23.23;20.71
35435;BME280;21556;55.782;37.528;2023-04-21T10:47:09;99436.78;;;22.68;21.05
35435;BME280;21556;55.782;37.528;2023-04-21T10:49:39;99431.66;;;21.58;21.75
35435;BME280;21556;55.782;37.528;2023-04-21T10:52:07;99438.84;;;21.56;21.87
35435;BME280;21556;55.782;37.528;2023-04-21T10:54:42;99439.84;;;21.80;22.21
35435;BME280;21556;55.782;37.528;2023-04-21T10:57:12;99439.47;;;21.91;22.06
35435;BME280;21556;55.782;37.528;2023-04-21T10:59:41;99439.50;;;21.63;22.59
35435;BME280;21556;55.782;37.528;2023-04-21T11:02:13;99437.84;;;21.31;23.31
35435;BME280;21556;55.782;37.528;2023-04-21T11:04:40;99433.47;;;21.58;22.91
35435;BME280;21556;55.782;37.528;2023-04-21T11:07:25;99437.34;;;21.18;23.38
35435;BME280;21556;55.782;37.528;2023-04-21T11:09:57;99431.94;;;21.49;23.63
35435;BME280;21556;55.782;37.528;2023-04-21T11:12:30;99439.59;;;21.02;23.57
35435;BME280;21556;55.782;37.528;2023-04-21T11:14:57;99434.97;;;21.09;23.45
35435;BME280;21556;55.782;37.528;2023-04-21T11:17:24;99439.97;;;20.90;23.48
35435;BME280;21556;55.782;37.528;2023-04-21T11:19:53;99440.66;;;21.26;22.51
35435;BME280;21556;55.782;37.528;2023-04-21T11:22:24;99435.09;;;20.42;22.94
35435;BME280;21556;55.782;37.528;2023-04-21T11:24:54;99433.78;;;20.58;23.20
35435;BME280;21556;55.782;37.528;2023-04-21T11:27:26;99430.41;;;20.83;22.92
35435;BME280;21556;55.782;37.528;2023-04-21T11:29:53;99422.44;;;20.52;23.44
35435;BME280;21556;55.782;37.528;2023-04-21T11:32:20;99430.56;;;20.46;24.37
35435;BME280;21556;55.782;37.528;2023-04-21T11:34:46;99422.72;;;20.41;24.31
35435;BME280;21556;55.782;37.528;2023-04-21T11:37:16;99410.00;;;21.11;23.71
35435;BME280;21556;55.782;37.528;2023-04-21T11:39:45;99409.41;;;20.39;24.25
35435;BME280;21556;55.782;37.528;2023-04-21T11:42:20;99419.56;;;20.25;24.17
35435;BME280;21556;55.782;37.528;2023-04-21T11:44:47;99417.69;;;20.29;24.52
35435;BME280;21556;55.782;37.528;2023-04-21T11:47:17;99412.94;;;20.40;24.05
35435;BME280;21556;55.782;37.528;2023-04-21T11:49:48;99415.22;;;20.23;23.93
35435;BME280;21556;55.782;37.528;2023-04-21T11:52:33;99401.41;;;20.41;23.54
35435;BME280;21556;55.782;37.528;2023-04-21T11:55:02;99407.59;;;20.41;24.23
35435;BME280;21556;55.782;37.528;2023-04-21T11:57:29;99396.53;;;20.24;24.07
35435;BME280;21556;55.782;37.528;2023-04-21T12:00:01;99398.41;;;20.53;23.92
35435;BME280;21556;55.782;37.528;2023-04-21T12:02:35;99395.94;;;20.77;23.87
35435;BME280;21556;55.782;37.528;2023-04-21T12:05:06;99399.81;;;20.34;23.81
35435;BME280;21556;55.782;37.528;2023-04-21T12:07:35;99390.41;;;20.84;23.29
35435;BME280;21556;55.782;37.528;2023-04-21T12:10:07;99397.06;;;20.04;23.35
35435;BME280;21556;55.782;37.528;2023-04-21T12:12:36;99387.03;;;20.14;23.50
35435;BME280;21556;55.782;37.528;2023-04-21T12:15:05;99387.16;;;19.75;24.03
35435;BME280;21556;55.782;37.528;2023-04-21T12:17:46;99386.31;;;19.37;24.05
35435;BME280;21556;55.782;37.528;2023-04-21T12:20:18;99383.91;;;19.64;23.96
35435;BME280;21556;55.782;37.528;2023-04-21T12:22:46;99388.03;;;20.42;22.99
35435;BME280;21556;55.782;37.528;2023-04-21T12:25:14;99373.28;;;20.62;22.68
35435;BME280;21556;55.782;37.528;2023-04-21T12:27:56;99377.22;;;20.47;23.02
35435;BME280;21556;55.782;37.528;2023-04-21T12:30:24;99370.19;;;20.13;23.34
35435;BME280;21556;55.782;37.528;2023-04-21T12:32:51;99363.94;;;19.82;23.37
35435;BME280;21556;55.782;37.528;2023-04-21T12:35:21;99367.56;;;19.43;24.19
35435;BME280;21556;55.782;37.528;2023-04-21T12:37:47;99374.94;;;20.02;23.57
35435;BME280;21556;55.782;37.528;2023-04-21T12:40:13;99368.72;;;20.34;23.17
35435;BME280;21556;55.782;37.528;2023-04-21T12:42:41;99369.91;;;19.91;23.34
35435;BME280;21556;55.782;37.528;2023-04-21T12:45:07;99365.53;;;19.89;23.44
35435;BME280;21556;55.782;37.528;2023-04-21T12:47:34;99355.00;;;19.50;23.89
35435;BME280;21556;55.782;37.528;2023-04-21T12:50:01;99355.88;;;20.17;23.39
35435;BME280;21556;55.782;37.528;2023-04-21T12:52:30;99355.19;;;20.42;23.44
35435;BME280;21556;55.782;37.528;2023-04-21T12:54:56;99355.44;;;20.02;23.71
35435;BME280;21556;55.782;37.528;2023-04-21T12:57:22;99353.72;;;19.99;23.80
35435;BME280;21556;55.782;37.528;2023-04-21T12:59:54;99356.22;;;19.71;23.83
35435;BME280;21556;55.782;37.528;2023-04-21T13:02:20;99349.09;;;19.73;23.99
35435;BME280;21556;55.782;37.528;2023-04-21T13:04:46;99350.28;;;19.61;23.81
35435;BME280;21556;55.782;37.528;2023-04-21T13:07:12;99346.28;;;19.43;23.90
35435;BME280;21556;55.782;37.528;2023-04-21T13:09:39;99349.00;;;19.40;23.99
35435;BME280;21556;55.782;37.528;2023-04-21T13:12:05;99343.28;;;19.21;24.25
35435;BME280;21556;55.782;37.528;2023-04-21T13:14:32;99346.63;;;18.92;24.52
35435;BME280;21556;55.782;37.528;2023-04-21T13:16:58;99345.63;;;19.34;24.08
35435;BME280;21556;55.782;37.528;2023-04-21T13:19:24;99336.72;;;19.36;23.93